createdAt,value
2022-11-28T00:01:52.081Z,3.60
2022-11-28T00:06:14.589Z,3.60
2022-11-28T00:10:41.002Z,3.60
2022-11-28T00:15:04.459Z,3.60
2022-11-28T00:19:26.299Z,3.60
2022-11-28T00:23:49.581Z,3.60
2022-11-28T00:28:11.206Z,3.60
2022-11-28T00:32:33.103Z,3.60
2022-11-28T00:36:54.990Z,3.50
2022-11-28T00:41:21.128Z,3.50
2022-11-28T00:45:43.427Z,3.50
2022-11-28T00:50:06.237Z,3.40
2022-11-28T00:54:28.289Z,3.40
2022-11-28T00:58:50.802Z,3.30
2022-11-28T01:03:12.580Z,3.30
2022-11-28T01:07:34.774Z,3.30
2022-11-28T01:11:56.671Z,3.20
2022-11-28T01:16:18.661Z,3.20
2022-11-28T01:20:40.563Z,3.20
2022-11-28T01:25:02.602Z,3.20
2022-11-28T01:29:24.686Z,3.10
2022-11-28T01:33:47.058Z,3.00
2022-11-28T01:38:09.016Z,3.00
2022-11-28T01:42:31.131Z,2.90
2022-11-28T01:46:53.161Z,2.90
2022-11-28T01:51:15.693Z,2.90
2022-11-28T01:55:48.759Z,3.10
2022-11-28T02:00:14.384Z,3.30
2022-11-28T02:04:36.342Z,3.30
2022-11-28T02:08:58.562Z,3.30
2022-11-28T02:14:00.424Z,3.40
2022-11-28T02:18:55.507Z,3.40
2022-11-28T02:23:51.523Z,3.30
2022-11-28T02:28:38.045Z,3.20
2022-11-28T02:33:27.681Z,3.30
2022-11-28T02:37:49.199Z,3.30
2022-11-28T02:42:53.495Z,3.40
2022-11-28T02:47:34.098Z,3.40
2022-11-28T02:52:16.921Z,3.40
2022-11-28T02:56:39.390Z,3.30
2022-11-28T03:01:01.282Z,3.30
2022-11-28T03:05:38.008Z,3.40
2022-11-28T03:10:33.803Z,3.50
2022-11-28T03:15:00.591Z,3.50
2022-11-28T03:19:38.104Z,3.60
2022-11-28T03:24:20.192Z,3.50
2022-11-28T03:29:20.936Z,3.50
2022-11-28T03:33:52.301Z,3.50
2022-11-28T03:38:30.729Z,3.50
2022-11-28T03:43:09.648Z,3.50
2022-11-28T03:47:41.873Z,3.40
2022-11-28T03:52:32.829Z,3.40
2022-11-28T03:57:13.108Z,3.20
2022-11-28T04:02:21.162Z,3.20
2022-11-28T04:07:03.336Z,3.20
2022-11-28T04:11:38.843Z,3.10
2022-11-28T04:16:08.177Z,3.10
2022-11-28T04:21:15.240Z,3.10
2022-11-28T04:25:40.254Z,3.20
2022-11-28T04:30:05.568Z,3.20
2022-11-28T04:34:30.687Z,3.20
2022-11-28T04:38:57.515Z,3.20
2022-11-28T04:43:29.181Z,3.20
2022-11-28T04:47:51.416Z,3.20
2022-11-28T04:52:30.013Z,3.20
2022-11-28T04:57:26.694Z,3.10
2022-11-28T05:01:50.335Z,3.10
2022-11-28T05:06:31.572Z,3.10
2022-11-28T05:10:53.484Z,3.10
2022-11-28T05:15:19.313Z,3.00
2022-11-28T05:19:41.436Z,2.90
2022-11-28T05:24:04.316Z,2.90
2022-11-28T05:28:26.035Z,2.90
2022-11-28T05:32:47.912Z,3.00
2022-11-28T05:37:10.403Z,3.00
2022-11-28T05:41:33.466Z,3.10
2022-11-28T05:45:56.392Z,3.10
2022-11-28T05:50:18.604Z,3.20
2022-11-28T05:54:40.345Z,3.30
2022-11-28T05:59:02.384Z,3.30
2022-11-28T06:03:24.532Z,3.30
2022-11-28T06:07:46.521Z,3.30
2022-11-28T06:12:10.764Z,3.40
2022-11-28T06:16:33.400Z,3.40
2022-11-28T06:20:56.693Z,3.40
2022-11-28T06:25:18.894Z,3.40
2022-11-28T06:29:41.092Z,3.40
2022-11-28T06:34:03.057Z,3.40
2022-11-28T06:38:25.141Z,3.40
2022-11-28T06:42:50.466Z,3.50
2022-11-28T06:47:12.635Z,3.50
2022-11-28T06:51:34.462Z,3.50
2022-11-28T06:55:56.320Z,3.60
2022-11-28T07:00:18.699Z,3.50
2022-11-28T07:04:40.427Z,3.50
2022-11-28T07:09:02.733Z,3.50
2022-11-28T07:13:24.983Z,3.50
2022-11-28T07:17:46.598Z,3.60
2022-11-28T07:22:11.691Z,3.60
2022-11-28T07:26:34.085Z,3.60
2022-11-28T07:31:14.533Z,3.70
2022-11-28T07:35:36.623Z,3.70
2022-11-28T07:39:58.617Z,3.70
2022-11-28T07:44:22.782Z,3.70
2022-11-28T07:48:45.048Z,3.70
2022-11-28T07:53:07.492Z,3.70
2022-11-28T07:57:30.750Z,3.70
2022-11-28T08:01:53.926Z,3.70
2022-11-28T08:06:20.156Z,3.70
2022-11-28T08:10:42.133Z,3.90
2022-11-28T08:15:04.450Z,4.00
2022-11-28T08:19:28.317Z,4.00
2022-11-28T08:23:55.828Z,4.00
2022-11-28T08:28:17.614Z,4.10
2022-11-28T08:32:39.543Z,4.00
2022-11-28T08:37:01.520Z,4.10
2022-11-28T08:41:24.356Z,4.10
2022-11-28T08:45:46.803Z,4.10
2022-11-28T08:50:09.440Z,4.10
2022-11-28T08:54:31.908Z,4.10
2022-11-28T08:58:53.971Z,4.20
2022-11-28T09:03:18.291Z,4.20
2022-11-28T09:07:40.422Z,4.20
2022-11-28T09:12:02.327Z,4.10
2022-11-28T09:16:24.262Z,4.10
2022-11-28T09:20:46.307Z,4.00
2022-11-28T09:25:08.991Z,3.90
2022-11-28T09:29:30.827Z,4.00
2022-11-28T09:33:53.921Z,4.00
2022-11-28T09:38:15.823Z,4.10
2022-11-28T09:42:44.574Z,4.20
2022-11-28T09:47:33.060Z,4.20
2022-11-28T09:52:36.474Z,4.40
2022-11-28T09:57:00.295Z,4.40
2022-11-28T10:01:37.119Z,4.70
2022-11-28T10:06:20.474Z,5.00
2022-11-28T10:11:38.439Z,5.00
2022-11-28T10:16:57.209Z,5.20
2022-11-28T10:21:35.116Z,5.40
2022-11-28T10:26:22.760Z,5.80
2022-11-28T10:30:51.413Z,5.90
2022-11-28T10:35:36.762Z,5.80
2022-11-28T10:40:49.885Z,6.10
2022-11-28T10:45:23.782Z,6.30
2022-11-28T10:50:06.564Z,6.80
2022-11-28T10:55:21.827Z,7.00
2022-11-28T11:00:09.642Z,6.50
2022-11-28T11:04:34.120Z,5.80
2022-11-28T11:08:55.981Z,5.60
2022-11-28T11:13:26.291Z,5.40
2022-11-28T11:17:50.884Z,5.30
2022-11-28T11:22:29.181Z,5.30
2022-11-28T11:26:51.160Z,5.30
2022-11-28T11:31:44.161Z,5.20
2022-11-28T11:36:26.978Z,5.20
2022-11-28T11:40:51.073Z,5.20
2022-11-28T11:45:34.618Z,5.20
2022-11-28T11:50:06.037Z,5.20
2022-11-28T11:54:28.183Z,5.30
2022-11-28T11:58:53.353Z,5.50
2022-11-28T12:03:42.175Z,5.80
2022-11-28T12:08:14.480Z,5.90
2022-11-28T12:12:38.236Z,5.70
2022-11-28T12:17:47.315Z,5.50
2022-11-28T12:22:44.282Z,5.50
2022-11-28T12:27:46.261Z,5.40
2022-11-28T12:32:52.229Z,5.40
2022-11-28T12:43:05.908Z,5.60
2022-11-28T12:47:37.359Z,5.50
2022-11-28T12:52:18.890Z,5.30
2022-11-28T12:56:52.703Z,5.20
2022-11-28T13:01:49.544Z,5.20
2022-11-28T13:06:56.634Z,5.20
2022-11-28T13:11:45.136Z,5.00
2022-11-28T13:16:49.289Z,5.00
2022-11-28T13:21:46.230Z,4.90
2022-11-28T13:26:43.718Z,4.90
2022-11-28T13:31:33.077Z,4.80
2022-11-28T13:42:14.250Z,4.80
2022-11-28T13:46:25.657Z,4.80
2022-11-28T13:51:28.740Z,4.80
2022-11-28T13:56:06.978Z,4.70
2022-11-28T14:00:30.475Z,4.70
2022-11-28T14:04:52.526Z,4.70
2022-11-28T14:09:17.398Z,4.70
2022-11-28T14:14:04.036Z,4.60
2022-11-28T14:19:21.359Z,4.60
2022-11-28T14:24:11.399Z,4.50
2022-11-28T14:28:39.339Z,4.40
2022-11-28T14:33:17.457Z,4.30
2022-11-28T14:37:55.615Z,4.30
2022-11-28T14:42:44.003Z,4.20
2022-11-28T14:47:21.970Z,4.10
2022-11-28T14:52:00.134Z,4.10
2022-11-28T14:56:34.577Z,4.10
2022-11-28T15:01:00.150Z,4.00
2022-11-28T15:05:57.192Z,4.00
2022-11-28T15:10:51.635Z,4.00
2022-11-28T15:15:17.110Z,4.00
2022-11-28T15:19:49.303Z,3.90
2022-11-28T15:24:33.018Z,3.90
2022-11-28T15:29:18.343Z,3.90
2022-11-28T15:33:40.485Z,3.90
2022-11-28T15:38:02.627Z,3.80
2022-11-28T15:42:32.842Z,3.80
2022-11-28T15:46:56.773Z,3.80
2022-11-28T15:51:30.245Z,3.80
2022-11-28T15:56:15.086Z,3.90
2022-11-28T16:00:42.046Z,3.80
2022-11-28T16:05:11.809Z,3.90
2022-11-28T16:09:35.831Z,3.90
2022-11-28T16:14:06.334Z,3.90
2022-11-28T16:18:30.364Z,3.90
2022-11-28T16:22:59.762Z,3.80
2022-11-28T16:27:41.696Z,3.80
2022-11-28T16:32:35.649Z,3.80
2022-11-28T16:36:57.881Z,3.80
2022-11-28T16:41:26.912Z,3.80
2022-11-28T16:45:59.473Z,3.90
2022-11-28T16:50:24.769Z,3.90
2022-11-28T16:54:48.781Z,3.90
2022-11-28T16:59:17.820Z,3.90
2022-11-28T17:03:49.805Z,3.90
2022-11-28T17:08:12.090Z,3.90
2022-11-28T17:12:37.136Z,4.00
2022-11-28T17:17:02.264Z,4.10
2022-11-28T17:21:36.477Z,4.10
2022-11-28T17:26:01.034Z,4.10
2022-11-28T17:30:23.375Z,4.10
2022-11-28T17:34:48.515Z,4.10
2022-11-28T17:39:12.270Z,4.00
2022-11-28T17:43:38.887Z,4.00
2022-11-28T17:48:01.447Z,4.00
2022-11-28T17:52:30.284Z,3.90
2022-11-28T17:56:54.300Z,3.90
2022-11-28T18:01:22.170Z,3.80
2022-11-28T18:05:47.413Z,3.80
2022-11-28T18:10:09.997Z,3.70
2022-11-28T18:14:38.131Z,3.70
2022-11-28T18:19:02.792Z,3.60
2022-11-28T18:23:24.831Z,3.60
2022-11-28T18:27:46.936Z,3.60
2022-11-28T18:32:08.741Z,3.60
2022-11-28T18:36:33.484Z,3.60
2022-11-28T18:40:55.382Z,3.50
2022-11-28T18:45:17.634Z,3.60
2022-11-28T18:49:40.034Z,3.60
2022-11-28T18:54:05.558Z,3.60
2022-11-28T18:58:29.492Z,3.60
2022-11-28T19:02:53.259Z,3.60
2022-11-28T19:07:15.480Z,3.60
2022-11-28T19:11:37.737Z,3.50
2022-11-28T19:15:59.420Z,3.50
2022-11-28T19:20:22.653Z,3.50
2022-11-28T19:24:44.541Z,3.50
2022-11-28T19:29:07.382Z,3.50
2022-11-28T19:33:29.151Z,3.50
2022-11-28T19:37:51.183Z,3.50
2022-11-28T19:42:13.345Z,3.60
2022-11-28T19:46:35.972Z,3.60
2022-11-28T19:50:59.108Z,3.60
2022-11-28T19:55:21.072Z,3.60
2022-11-28T19:59:43.207Z,3.60
2022-11-28T20:04:05.947Z,3.60
2022-11-28T20:08:28.834Z,3.60
2022-11-28T20:12:50.831Z,3.60
2022-11-28T20:17:13.714Z,3.50
2022-11-28T20:21:35.816Z,3.50
2022-11-28T20:26:05.027Z,3.50
2022-11-28T20:30:27.887Z,3.50
2022-11-28T20:34:49.628Z,3.60
2022-11-28T20:39:12.790Z,3.60
2022-11-28T20:43:37.915Z,3.60
2022-11-28T20:48:01.793Z,3.60
2022-11-28T20:52:23.590Z,3.60
2022-11-28T20:57:19.302Z,3.70
2022-11-28T21:01:34.174Z,3.70
2022-11-28T21:06:00.881Z,3.70
2022-11-28T21:10:23.655Z,3.70
2022-11-28T21:14:45.617Z,3.70
2022-11-28T21:19:09.556Z,3.80
2022-11-28T21:23:31.309Z,3.80
2022-11-28T21:27:53.226Z,3.80
2022-11-28T21:32:16.300Z,3.80
2022-11-28T21:36:38.195Z,3.80
2022-11-28T21:41:01.064Z,3.80
2022-11-28T21:45:24.025Z,3.90
2022-11-28T21:49:45.958Z,3.90
2022-11-28T21:54:07.777Z,3.90
2022-11-28T21:58:30.824Z,3.90
2022-11-28T22:02:56.915Z,3.90
2022-11-28T22:07:23.264Z,3.90
2022-11-28T22:11:46.190Z,4.00
2022-11-28T22:16:23.754Z,4.00
2022-11-28T22:20:50.266Z,3.90
2022-11-28T22:25:14.905Z,4.00
2022-11-28T22:29:36.954Z,3.90
2022-11-28T22:33:59.238Z,3.90
2022-11-28T22:38:21.180Z,3.90
2022-11-28T22:42:43.312Z,4.00
2022-11-28T22:47:05.580Z,4.00
2022-11-28T22:51:29.619Z,4.00
2022-11-28T22:55:51.928Z,4.00
2022-11-28T23:00:15.561Z,4.10
2022-11-28T23:04:38.032Z,4.10
2022-11-28T23:09:05.206Z,4.10
2022-11-28T23:13:28.237Z,4.10
2022-11-28T23:17:50.437Z,4.10
2022-11-28T23:22:12.223Z,4.10
2022-11-28T23:26:35.090Z,4.10
2022-11-28T23:31:25.703Z,4.10
2022-11-28T23:35:49.730Z,4.20
2022-11-28T23:40:12.323Z,4.20
2022-11-28T23:44:34.519Z,4.20
2022-11-28T23:48:56.978Z,4.20
2022-11-28T23:53:18.909Z,4.20
2022-11-28T23:57:40.970Z,4.20
